Time;durP1;ratioP1;P1;durP2;ratioP2;P2;SDS_P1;SDS_P2;PMS_P1;PMS_P2;Temp;Humidity;BMP_temperature;BMP_pressure;BME280_temperature;BME280_humidity;BME280_pressure;Samples;Min_cycle;Max_cycle;Signal;HPM_P1;HPM_P2
2021/12/21 00:01:05;;;;;;;;;14.50;13.00;;;;;4.92;57.58;101680.31;5060246;28;45306;-63
2021/12/21 00:03:31;;;;;;;;;18.50;15.00;;;;;4.92;57.36;101680.31;5077432;28;68966;-62
2021/12/21 00:05:56;;;;;;;;;14.75;13.25;;;;;4.89;57.60;101682.13;5077430;28;67692;-62
2021/12/21 00:08:22;;;;;;;;;15.00;13.00;;;;;4.89;57.67;101676.94;5078286;28;46324;-62
2021/12/21 00:10:48;;;;;;;;;13.75;13.25;;;;;4.85;57.74;101675.38;5078404;28;45506;-61
2021/12/21 00:16:08;;;;;;;;;19.25;12.75;;;;;4.78;57.91;101663.56;5061637;28;45280;-63
2021/12/21 00:18:40;;;;;;;;;16.25;13.50;;;;;4.74;58.04;101669.84;5077222;28;46510;-61
2021/12/21 00:26:16;;;;;;;;;14.75;12.50;;;;;4.66;57.96;101654.56;5077746;28;45301;-62
2021/12/21 00:31:20;;;;;;;;;15.50;13.00;;;;;4.61;58.13;101656.53;5046349;28;45889;-61
2021/12/21 00:33:46;;;;;;;;;23.00;16.00;;;;;4.57;58.20;101657.56;5078059;28;45320;-61
2021/12/21 00:36:13;;;;;;;;;19.00;17.25;;;;;4.50;58.43;101654.41;5059753;28;45532;-62
2021/12/21 00:38:39;;;;;;;;;17.75;15.50;;;;;4.48;58.40;101656.22;5059536;28;46207;-63
2021/12/21 00:41:04;;;;;;;;;19.00;14.00;;;;;4.46;58.33;101658.06;5059584;28;45360;-62
2021/12/21 00:43:30;;;;;;;;;19.25;14.75;;;;;4.45;58.21;101659.84;5076597;28;45491;-61
2021/12/21 00:45:55;;;;;;;;;17.75;15.00;;;;;4.43;58.60;101663.41;5059692;28;45486;-62
2021/12/21 00:48:27;;;;;;;;;17.00;12.00;;;;;4.41;58.27;101657.41;5059617;28;45297;-62
2021/12/21 00:50:52;;;;;;;;;13.25;12.25;;;;;4.40;58.73;101650.53;5059528;28;45754;-61
2021/12/21 00:53:18;;;;;;;;;17.50;14.00;;;;;4.40;58.48;101654.00;5076702;28;68396;-62
2021/12/21 00:55:43;;;;;;;;;21.50;16.00;;;;;4.40;58.62;101658.34;5058739;28;59251;-62
2021/12/21 00:58:08;;;;;;;;;22.50;14.00;;;;;4.37;58.66;101654.13;5076493;28;72210;-63
2021/12/21 01:00:34;;;;;;;;;21.50;15.75;;;;;4.38;58.39;101654.94;5077399;28;45194;-62
2021/12/21 01:03:05;;;;;;;;;19.50;13.50;;;;;4.39;58.67;101654.91;5058706;28;61937;-62
2021/12/21 01:05:56;;;;;;;;;16.50;12.00;;;;;4.40;58.36;101654.00;5058566;28;45636;-61
2021/12/21 01:08:23;;;;;;;;;16.50;12.75;;;;;4.40;58.17;101648.78;5076672;28;45229;-61
2021/12/21 01:13:32;;;;;;;;;14.75;13.75;;;;;4.43;58.56;101645.19;5077335;28;45363;-62
2021/12/21 01:16:16;;;;;;;;;18.00;13.75;;;;;4.42;58.63;101643.50;5077466;28;45358;-62
2021/12/21 01:18:59;;;;;;;;;21.00;12.50;;;;;4.41;58.68;101639.19;5044650;28;47160;-62
2021/12/21 01:21:29;;;;;;;;;16.50;15.25;;;;;4.37;58.53;101633.31;5077166;28;45240;-63
2021/12/21 01:35:19;;;;;;;;;21.50;13.25;;;;;4.20;58.69;101628.00;5064467;28;45300;-63
2021/12/21 01:40:24;;;;;;;;;20.25;13.75;;;;;4.11;58.65;101629.25;5076712;27;45164;-62
2021/12/21 01:43:15;;;;;;;;;14.00;13.50;;;;;4.08;58.71;101634.59;5060438;28;45440;-61
2021/12/21 01:51:09;;;;;;;;;19.00;12.25;;;;;3.93;59.31;101626.53;5061174;28;45400;-62
2021/12/21 01:53:35;;;;;;;;;19.25;13.00;;;;;3.92;59.54;101627.44;5058877;28;45325;-61
2021/12/21 01:56:02;;;;;;;;;19.00;14.50;;;;;3.87;59.16;101621.59;5076806;28;45281;-61
2021/12/21 01:58:27;;;;;;;;;16.25;13.00;;;;;3.82;59.28;101633.94;5076676;27;45224;-63
2021/12/21 02:00:53;;;;;;;;;12.75;12.00;;;;;3.78;59.44;101624.56;5076628;28;46268;-63
2021/12/21 02:03:18;;;;;;;;;15.75;13.25;;;;;3.75;59.77;101629.91;5057658;28;64427;-61
2021/12/21 02:05:43;;;;;;;;;19.25;13.25;;;;;3.69;60.00;101624.06;5075851;28;67255;-62
2021/12/21 02:08:09;;;;;;;;;17.00;14.75;;;;;3.64;60.02;101627.75;5075755;28;65783;-62
2021/12/21 02:10:34;;;;;;;;;26.25;16.50;;;;;3.59;60.17;101627.97;5076393;28;46233;-62
2021/12/21 02:13:00;;;;;;;;;24.50;18.00;;;;;3.56;60.35;101622.91;5057410;28;66850;-62
2021/12/21 02:15:25;;;;;;;;;19.00;15.00;;;;;3.52;60.47;101624.75;5075927;28;58740;-61
2021/12/21 02:23:15;;;;;;;;;21.75;17.25;;;;;3.41;60.96;101625.22;5076350;27;45509;-61
2021/12/21 02:30:43;;;;;;;;;11.25;6.75;;;;;3.34;61.09;101625.53;5058112;28;45352;-63
2021/12/21 02:33:09;;;;;;;;;15.00;13.00;;;;;3.29;61.44;101614.47;5076175;28;45256;-62
2021/12/21 02:35:34;;;;;;;;;19.00;13.50;;;;;3.30;61.50;101621.38;5076317;28;45334;-62
2021/12/21 02:38:00;;;;;;;;;22.50;15.50;;;;;3.27;61.35;101627.50;5075321;28;63555;-62
2021/12/21 02:40:25;;;;;;;;;13.50;12.00;;;;;3.27;61.69;101619.72;5075017;28;72403;-62
2021/12/21 02:42:50;;;;;;;;;21.75;17.50;;;;;3.28;61.67;101618.81;5078468;28;69685;-62
2021/12/21 02:45:16;;;;;;;;;21.75;14.00;;;;;3.26;61.91;101613.69;5079113;28;62936;-61
2021/12/21 02:47:41;;;;;;;;;15.75;14.50;;;;;3.26;61.93;101613.69;5078707;28;68028;-61
2021/12/21 02:50:07;;;;;;;;;17.25;12.00;;;;;3.28;61.71;101613.63;5078858;28;62929;-61
2021/12/21 02:52:33;;;;;;;;;15.00;11.50;;;;;3.30;61.92;101608.38;5079265;28;45304;-62
2021/12/21 02:54:59;;;;;;;;;12.25;12.00;;;;;3.32;61.71;101597.00;5079542;28;45336;-61
2021/12/21 02:57:25;;;;;;;;;19.25;11.75;;;;;3.36;61.95;101597.75;5079578;28;45456;-62
2021/12/21 02:59:50;;;;;;;;;16.25;12.00;;;;;3.39;61.93;101593.25;5078511;28;70829;-62
2021/12/21 03:02:16;;;;;;;;;15.25;11.00;;;;;3.42;61.71;101598.31;5078532;28;65282;-62
2021/12/21 03:04:42;;;;;;;;;13.75;11.50;;;;;3.45;61.68;101591.31;5079392;28;45300;-62
2021/12/21 03:07:46;;;;;;;;;16.50;12.50;;;;;3.48;61.64;101586.81;5079265;28;45549;-62
2021/12/21 03:10:08;;;;;;;;;16.50;11.50;;;;;3.51;61.80;101584.09;5065024;28;45350;-62
2021/12/21 03:15:21;;;;;;;;;10.50;10.50;;;;;3.59;61.61;101582.94;5047392;28;45347;-62
2021/12/21 03:17:46;;;;;;;;;14.00;11.25;;;;;3.62;61.41;101578.47;5061036;28;45534;-62
2021/12/21 03:20:11;;;;;;;;;9.00;8.00;;;;;3.64;61.66;101579.25;5078152;28;68477;-61
2021/12/21 03:22:37;;;;;;;;;11.75;10.25;;;;;3.64;61.45;101579.25;5078023;28;71143;-62
2021/12/21 03:25:03;;;;;;;;;11.00;11.00;;;;;3.68;61.34;101582.53;5078630;28;59341;-62
2021/12/21 03:27:28;;;;;;;;;16.75;9.00;;;;;3.69;61.23;101577.28;5078590;27;45264;-64
2021/12/21 03:29:54;;;;;;;;;11.50;10.75;;;;;3.71;61.21;101575.44;5078044;27;65985;-62
2021/12/21 03:32:19;;;;;;;;;16.75;12.75;;;;;3.74;61.25;101576.22;5077881;28;68459;-62
2021/12/21 03:34:44;;;;;;;;;13.75;10.75;;;;;3.72;61.67;101582.31;5078240;28;65496;-62
2021/12/21 03:37:12;;;;;;;;;20.00;11.50;;;;;3.72;61.25;101573.69;5060445;28;50725;-63
2021/12/21 03:39:42;;;;;;;;;16.75;12.00;;;;;3.71;61.41;101575.44;5078575;28;45302;-61
2021/12/21 03:42:08;;;;;;;;;17.00;14.00;;;;;3.70;61.44;101576.38;5060666;28;45858;-63
2021/12/21 03:44:33;;;;;;;;;15.50;11.00;;;;;3.72;61.14;101577.13;5060543;28;45368;-63
2021/12/21 03:46:58;;;;;;;;;13.00;10.00;;;;;3.71;61.39;101579.81;5078520;28;48227;-62
2021/12/21 03:52:01;;;;;;;;;16.00;12.00;;;;;3.65;61.42;101577.47;5060772;28;45865;-63
2021/12/21 03:54:26;;;;;;;;;13.50;11.00;;;;;3.60;61.66;101584.63;5077801;28;45438;-62
2021/12/21 03:56:52;;;;;;;;;11.00;9.25;;;;;3.56;61.56;101583.91;5060488;28;45444;-62
2021/12/21 03:59:18;;;;;;;;;14.00;11.25;;;;;3.50;61.83;101582.41;5078284;28;46076;-61
2021/12/21 04:01:44;;;;;;;;;13.75;10.00;;;;;3.43;61.83;101583.59;5060303;28;45581;-62
2021/12/21 04:04:10;;;;;;;;;13.50;11.00;;;;;3.40;61.88;101588.91;5078526;28;45401;-61
2021/12/21 04:06:35;;;;;;;;;15.50;13.00;;;;;3.35;61.94;101581.28;5078384;28;45451;-62
2021/12/21 04:09:02;;;;;;;;;12.25;9.25;;;;;3.31;61.96;101582.31;5060134;28;45283;-61
2021/12/21 04:11:27;;;;;;;;;12.00;10.75;;;;;3.28;62.18;101579.84;5060112;28;45738;-61
2021/12/21 04:13:53;;;;;;;;;12.25;9.50;;;;;3.25;61.98;101577.38;5077316;28;67119;-61
2021/12/21 04:16:18;;;;;;;;;11.00;11.00;;;;;3.21;62.37;101579.25;5078527;28;45520;-62
2021/12/21 04:18:43;;;;;;;;;13.25;10.50;;;;;3.21;62.57;101575.81;5077054;28;69460;-61
2021/12/21 04:21:11;;;;;;;;;10.75;10.00;;;;;3.17;62.47;101574.28;5078125;28;45346;-61
2021/12/21 04:23:37;;;;;;;;;12.75;11.50;;;;;3.15;62.81;101576.09;5078141;28;45347;-62
2021/12/21 04:26:03;;;;;;;;;8.50;7.75;;;;;3.11;62.56;101573.59;5059845;28;45489;-63
2021/12/21 04:28:28;;;;;;;;;11.25;11.00;;;;;3.10;62.83;101577.13;5077916;27;46120;-62
2021/12/21 04:30:54;;;;;;;;;8.75;6.00;;;;;3.07;62.73;101572.03;5077063;28;67949;-62
2021/12/21 04:33:19;;;;;;;;;8.50;8.50;;;;;3.05;62.59;101571.25;5076743;28;45363;-62
2021/12/21 04:35:44;;;;;;;;;12.25;10.75;;;;;3.01;63.02;101567.09;5077232;28;61875;-61
2021/12/21 04:38:32;;;;;;;;;12.50;10.50;;;;;2.97;63.01;101566.34;5059570;28;46598;-62
2021/12/21 04:41:09;;;;;;;;;10.25;8.00;;;;;2.97;63.09;101570.72;5075710;28;45297;-61
2021/12/21 04:43:35;;;;;;;;;14.75;8.00;;;;;2.95;63.06;101564.72;5078022;28;45410;-62
2021/12/21 04:46:00;;;;;;;;;12.75;10.50;;;;;2.90;62.94;101572.72;5077364;28;60076;-62
2021/12/21 04:48:25;;;;;;;;;11.25;10.00;;;;;2.85;63.15;101561.66;5058813;28;67960;-61
2021/12/21 04:50:51;;;;;;;;;43.75;36.50;;;;;2.83;63.08;101560.88;5077693;27;45445;-61
2021/12/21 04:53:17;;;;;;;;;12.00;11.00;;;;;2.84;63.05;101561.72;5076664;28;63021;-61
2021/12/21 04:55:42;;;;;;;;;14.50;11.00;;;;;2.82;63.29;101564.38;5077211;28;56229;-62
2021/12/21 04:58:07;;;;;;;;;17.50;11.00;;;;;2.81;63.66;101554.91;5076827;28;64579;-62
2021/12/21 05:00:33;;;;;;;;;14.25;12.25;;;;;2.80;63.35;101561.00;5059399;28;45302;-61
2021/12/21 05:02:59;;;;;;;;;11.75;10.00;;;;;2.77;63.33;101561.94;5077523;28;45256;-62
2021/12/21 05:05:24;;;;;;;;;7.75;7.75;;;;;2.78;63.41;101560.22;5076930;28;45185;-61
2021/12/21 05:07:55;;;;;;;;;13.00;10.50;;;;;2.78;63.44;101555.03;5059161;28;46259;-61
2021/12/21 05:10:20;;;;;;;;;13.00;8.25;;;;;2.77;63.49;101550.75;5060091;28;45901;-61
2021/12/21 05:12:46;;;;;;;;;10.50;8.25;;;;;2.78;63.43;101550.66;5077161;28;46294;-62
2021/12/21 05:15:11;;;;;;;;;13.75;9.00;;;;;2.77;63.22;101564.53;5077128;28;45608;-61
2021/12/21 05:17:37;;;;;;;;;5.75;2.75;;;;;2.76;63.55;101557.66;5076105;28;69306;-62
2021/12/21 05:20:03;;;;;;;;;15.25;11.00;;;;;2.73;63.34;101560.38;5058391;28;64213;-62
2021/12/21 05:22:28;;;;;;;;;12.00;10.00;;;;;2.71;63.68;101571.75;5042121;28;45231;-61
2021/12/21 05:24:54;;;;;;;;;15.75;14.00;;;;;2.66;63.53;101566.72;5077120;28;45276;-60
2021/12/21 05:27:19;;;;;;;;;17.75;15.00;;;;;2.63;63.54;101566.84;5075990;28;64419;-62
2021/12/21 05:29:45;;;;;;;;;16.25;10.00;;;;;2.61;63.61;101563.47;5058911;28;45325;-63
2021/12/21 05:32:10;;;;;;;;;14.25;10.00;;;;;2.58;63.73;101564.41;5076268;28;45249;-61
2021/12/21 05:34:35;;;;;;;;;18.75;11.75;;;;;2.56;63.35;101562.81;5076932;28;45228;-61
2021/12/21 05:37:05;;;;;;;;;11.75;9.50;;;;;2.51;63.48;101563.81;5076861;28;45459;-61
2021/12/21 05:39:40;;;;;;;;;11.00;7.50;;;;;2.48;63.49;101571.72;5058414;28;45269;-61
2021/12/21 05:42:06;;;;;;;;;13.00;8.25;;;;;2.41;63.89;101567.66;5077059;28;45392;-63
2021/12/21 05:44:31;;;;;;;;;12.00;10.00;;;;;2.37;63.85;101573.88;5076806;28;45402;-63
2021/12/21 05:46:57;;;;;;;;;12.00;8.25;;;;;2.34;63.65;101566.19;5075452;28;46144;-61
2021/12/21 05:49:22;;;;;;;;;12.00;9.25;;;;;2.31;63.95;101569.75;5076769;28;45438;-61
2021/12/21 05:51:48;;;;;;;;;10.25;9.50;;;;;2.29;63.74;101562.91;5075797;28;61195;-61
2021/12/21 05:54:14;;;;;;;;;11.75;8.25;;;;;2.27;63.96;101572.50;5058626;28;45248;-62
2021/12/21 05:56:39;;;;;;;;;12.00;10.00;;;;;2.26;63.92;101570.81;5076388;28;48038;-63
2021/12/21 05:59:05;;;;;;;;;10.00;7.25;;;;;2.22;63.71;101578.72;5075904;28;61746;-61
2021/12/21 06:01:34;;;;;;;;;12.00;10.00;;;;;2.17;64.09;101570.25;5076559;28;45194;-62
2021/12/21 06:04:03;;;;;;;;;10.75;10.00;;;;;2.17;64.03;101574.59;5057728;28;45355;-61
2021/12/21 06:06:30;;;;;;;;;14.25;12.50;;;;;2.14;64.10;101574.72;5076239;28;46453;-61
2021/12/21 06:08:58;;;;;;;;;13.50;11.00;;;;;2.10;64.21;101574.00;5076268;28;45348;-62
2021/12/21 06:11:23;;;;;;;;;10.50;9.00;;;;;2.07;64.08;101579.28;5058378;28;45418;-62
2021/12/21 06:26:42;;;;;;;;;14.00;10.00;;;;;1.87;64.73;101575.63;5079413;27;45368;-62
2021/12/21 06:29:08;;;;;;;;;14.50;12.00;;;;;1.83;64.70;101575.81;5061144;28;45419;-62
2021/12/21 06:31:34;;;;;;;;;9.00;8.75;;;;;1.82;64.85;101584.50;5061645;28;45388;-63
2021/12/21 06:33:59;;;;;;;;;14.75;11.50;;;;;1.78;64.90;101587.19;5061623;28;45288;-61
2021/12/21 06:36:25;;;;;;;;;5.75;5.00;;;;;1.76;64.85;101576.03;5079401;28;45763;-61
2021/12/21 06:38:51;;;;;;;;;13.00;10.00;;;;;1.74;65.04;101582.16;5061258;28;45319;-61
2021/12/21 06:41:16;;;;;;;;;15.00;11.00;;;;;1.72;65.23;101589.13;5079662;28;45371;-62
2021/12/21 06:43:42;;;;;;;;;15.50;9.75;;;;;1.69;65.37;101586.63;5079551;28;45335;-61
2021/12/21 06:46:16;;;;;;;;;12.75;9.50;;;;;1.66;65.47;101589.31;5079269;28;45336;-61
2021/12/21 06:51:40;;;;;;;;;19.25;13.00;;;;;1.63;65.71;101580.75;5049555;28;45420;-61
2021/12/21 06:54:06;;;;;;;;;17.50;12.75;;;;;1.66;65.62;101571.19;5078988;28;45158;-61
2021/12/21 06:56:31;;;;;;;;;16.25;12.75;;;;;1.66;65.79;101576.38;5078196;28;66701;-62
2021/12/21 06:58:56;;;;;;;;;15.25;14.25;;;;;1.67;65.75;101576.34;5078381;27;67227;-62
2021/12/21 07:01:28;;;;;;;;;16.50;14.75;;;;;1.71;65.92;101571.88;5079166;28;45398;-62
2021/12/21 07:03:54;;;;;;;;;20.75;12.50;;;;;1.74;65.79;101577.81;5061628;28;45428;-62
2021/12/21 07:06:20;;;;;;;;;15.00;12.75;;;;;1.76;65.51;101572.56;5078823;27;47102;-62
2021/12/21 07:08:59;;;;;;;;;17.00;14.75;;;;;1.76;65.53;101575.16;5060801;28;45332;-62
2021/12/21 07:19:18;;;;;;;;;16.00;11.75;;;;;1.66;65.92;101578.97;5078965;28;45811;-61
2021/12/21 07:21:43;;;;;;;;;18.25;14.00;;;;;1.65;65.72;101580.72;5078939;28;45387;-62
2021/12/21 07:24:08;;;;;;;;;15.25;13.50;;;;;1.60;65.89;101573.09;5060673;28;45321;-61
2021/12/21 07:26:34;;;;;;;;;15.00;13.50;;;;;1.59;65.85;101574.00;5078126;27;46560;-61
2021/12/21 07:28:59;;;;;;;;;18.25;13.50;;;;;1.59;65.82;101574.00;5077542;28;66612;-61
2021/12/21 07:31:25;;;;;;;;;23.25;14.75;;;;;1.58;65.92;101576.66;5078387;28;48831;-61
2021/12/21 07:33:50;;;;;;;;;16.75;12.75;;;;;1.55;66.14;101585.38;5060683;28;45364;-61
2021/12/21 07:36:15;;;;;;;;;19.25;12.75;;;;;1.53;65.75;101573.38;5078033;28;60490;-61
2021/12/21 07:38:41;;;;;;;;;15.00;11.75;;;;;1.52;66.07;101585.50;5078547;28;45429;-60
2021/12/21 07:41:06;;;;;;;;;18.25;12.50;;;;;1.51;65.91;101581.19;5060600;28;45751;-62
2021/12/21 07:43:32;;;;;;;;;17.75;13.00;;;;;1.49;66.13;101588.19;5077776;28;66443;-62
2021/12/21 07:45:57;;;;;;;;;18.50;11.00;;;;;1.50;66.39;101589.88;5078346;28;46047;-62
2021/12/21 07:48:23;;;;;;;;;21.25;16.25;;;;;1.50;66.28;101589.88;5078379;28;45291;-63
2021/12/21 07:50:48;;;;;;;;;15.25;13.25;;;;;1.50;66.23;101589.00;5077879;28;54214;-62
2021/12/21 07:53:14;;;;;;;;;16.75;14.00;;;;;1.48;66.26;101592.50;5078133;28;45517;-62
2021/12/21 07:55:40;;;;;;;;;25.00;20.75;;;;;1.47;66.15;101588.22;5078034;28;45533;-62
2021/12/21 07:58:05;;;;;;;;;22.50;15.50;;;;;1.47;66.24;101595.16;5059268;28;66052;-62
2021/12/21 08:00:30;;;;;;;;;18.25;14.00;;;;;1.51;66.47;101588.97;5077452;28;64898;-61
2021/12/21 08:02:57;;;;;;;;;19.00;14.00;;;;;1.53;66.39;101594.94;5077226;27;68770;-62
2021/12/21 08:05:23;;;;;;;;;18.00;15.00;;;;;1.55;66.34;101592.28;5059675;28;48692;-61
2021/12/21 08:07:54;;;;;;;;;22.50;15.00;;;;;1.58;66.41;101590.47;5077806;27;45396;-62
2021/12/21 08:10:27;;;;;;;;;12.25;12.25;;;;;1.60;66.35;101593.00;5078269;28;45279;-61
2021/12/21 08:12:52;;;;;;;;;18.25;17.25;;;;;1.63;66.22;101591.13;5077991;28;45352;-62
2021/12/21 08:15:18;;;;;;;;;20.50;15.75;;;;;1.67;66.24;101594.47;5077776;28;47169;-62
2021/12/21 08:17:43;;;;;;;;;20.75;15.75;;;;;1.71;66.26;101597.78;5059743;28;45326;-61
2021/12/21 08:20:09;;;;;;;;;23.25;16.25;;;;;1.73;66.03;101594.28;5077174;28;66761;-61
2021/12/21 08:22:34;;;;;;;;;15.50;13.75;;;;;1.76;66.27;101598.50;5077967;28;45506;-61
2021/12/21 08:25:00;;;;;;;;;20.25;15.25;;;;;1.77;66.04;101597.59;5076926;27;73075;-61
2021/12/21 08:27:25;;;;;;;;;23.00;16.25;;;;;1.80;66.00;101604.44;5059113;28;52706;-61
2021/12/21 08:29:50;;;;;;;;;22.75;18.25;;;;;1.83;65.92;101607.75;5077150;28;58438;-63
2021/12/21 08:32:16;;;;;;;;;22.50;16.25;;;;;1.85;65.74;101610.31;5076500;28;61543;-61
2021/12/21 08:34:41;;;;;;;;;28.25;17.00;;;;;1.87;65.64;101613.66;5076638;28;70813;-61
2021/12/21 08:37:07;;;;;;;;;21.50;16.25;;;;;1.87;65.78;101606.75;5058869;28;45348;-61
2021/12/21 08:39:38;;;;;;;;;22.25;16.25;;;;;1.89;65.72;101607.53;5076963;28;45240;-61
2021/12/21 08:42:11;;;;;;;;;23.00;18.25;;;;;1.91;65.62;101603.16;5077649;28;45378;-61
2021/12/21 08:44:36;;;;;;;;;20.25;18.00;;;;;1.95;65.54;101606.47;5058754;28;45309;-61
2021/12/21 08:47:03;;;;;;;;;22.75;18.00;;;;;1.98;65.31;101603.75;5076821;28;58756;-61
2021/12/21 08:49:29;;;;;;;;;27.25;22.00;;;;;1.97;65.51;101603.84;5077402;28;45189;-62
2021/12/21 08:51:54;;;;;;;;;21.75;18.50;;;;;2.02;65.13;101604.53;5077149;28;46008;-61
2021/12/21 08:54:20;;;;;;;;;23.00;19.00;;;;;2.06;65.42;101603.50;5076979;28;45370;-61
2021/12/21 08:56:48;;;;;;;;;24.50;21.25;;;;;2.08;65.23;101606.91;5076281;28;68726;-62
2021/12/21 08:59:15;;;;;;;;;20.75;18.50;;;;;2.12;65.11;101607.63;5077314;28;45446;-62
2021/12/21 09:01:40;;;;;;;;;25.25;18.00;;;;;2.14;65.16;101604.06;5077165;28;45443;-62
2021/12/21 09:04:06;;;;;;;;;23.00;17.75;;;;;2.16;65.03;101599.66;5076879;28;47986;-61
2021/12/21 09:06:31;;;;;;;;;21.75;16.00;;;;;2.19;65.09;101607.34;5076428;28;64611;-62
2021/12/21 09:08:57;;;;;;;;;19.00;15.00;;;;;2.26;64.75;101604.53;5076193;28;64189;-62
2021/12/21 09:11:22;;;;;;;;;23.00;18.75;;;;;2.27;64.54;101608.81;5058143;28;63935;-62
2021/12/21 09:13:47;;;;;;;;;22.50;16.00;;;;;2.29;64.73;101607.00;5076572;28;45973;-61
2021/12/21 09:16:13;;;;;;;;;22.75;16.75;;;;;2.30;64.42;101608.69;5075917;28;70456;-62
2021/12/21 09:18:38;;;;;;;;;20.75;16.00;;;;;2.33;64.81;101611.19;5076967;28;45446;-61
2021/12/21 09:21:04;;;;;;;;;23.25;18.50;;;;;2.38;64.78;101606.69;5042715;28;45332;-61
2021/12/21 09:23:29;;;;;;;;;23.75;18.00;;;;;2.42;64.69;101613.44;5062487;27;69126;-62
2021/12/21 09:25:54;;;;;;;;;24.00;18.75;;;;;2.46;64.47;101609.84;5069146;27;45271;-61
2021/12/21 09:28:20;;;;;;;;;24.25;19.00;;;;;2.50;64.27;101619.19;5061544;27;63008;-62
2021/12/21 09:30:46;;;;;;;;;20.00;18.00;;;;;2.56;63.99;101615.53;5061401;27;46167;-61
2021/12/21 09:33:11;;;;;;;;;22.25;12.00;;;;;2.61;64.15;101618.78;5052049;27;46262;-62
2021/12/21 09:35:36;;;;;;;;;24.25;17.50;;;;;2.66;63.99;101614.28;5049494;27;56357;-61
2021/12/21 09:38:02;;;;;;;;;10.50;10.50;;;;;2.71;63.94;101614.09;5043263;28;45261;-61
2021/12/21 09:40:28;;;;;;;;;16.00;14.50;;;;;2.79;63.55;101619.84;5068319;27;45411;-62
2021/12/21 09:42:54;;;;;;;;;20.75;19.75;;;;;2.86;63.61;101619.59;5062842;27;45439;-62
2021/12/21 09:45:19;;;;;;;;;21.50;15.50;;;;;2.97;63.40;101622.63;5048456;27;45367;-61
2021/12/21 09:47:45;;;;;;;;;21.00;18.00;;;;;3.11;63.68;101614.31;5067165;27;45395;-62
2021/12/21 09:50:12;;;;;;;;;21.00;17.25;;;;;3.31;63.14;101615.25;5052018;27;45639;-62
2021/12/21 09:52:37;;;;;;;;;19.75;18.00;;;;;3.55;62.87;101619.44;5078083;27;46240;-61
2021/12/21 09:55:05;;;;;;;;;15.50;15.50;;;;;3.78;62.44;101607.25;5074064;27;45529;-63
2021/12/21 09:57:31;;;;;;;;;20.75;17.00;;;;;4.07;61.98;101619.91;5074886;27;45367;-62
2021/12/21 09:59:56;;;;;;;;;24.50;17.50;;;;;4.33;61.78;101621.34;5071184;27;58853;-62
2021/12/21 10:02:22;;;;;;;;;19.00;16.50;;;;;4.57;60.95;101608.97;5064097;27;72681;-63
2021/12/21 10:04:52;;;;;;;;;25.75;19.25;;;;;4.85;60.05;101612.06;5066216;27;46140;-63
2021/12/21 10:07:19;;;;;;;;;22.75;19.50;;;;;5.09;59.49;101612.66;5043558;27;45785;-61
2021/12/21 10:09:46;;;;;;;;;31.75;24.25;;;;;5.34;58.79;101621.88;5044816;28;45482;-61
2021/12/21 10:12:31;;;;;;;;;24.25;18.00;;;;;5.55;58.34;101614.78;5038427;27;46322;-62
2021/12/21 10:15:15;;;;;;;;;21.25;17.50;;;;;5.78;57.68;101633.59;5045211;28;45417;-61
2021/12/21 10:17:54;;;;;;;;;27.25;21.25;;;;;5.98;56.46;101629.97;5064269;27;45459;-63
2021/12/21 10:20:29;;;;;;;;;23.00;20.75;;;;;6.13;55.93;101627.53;5047144;27;45642;-62
2021/12/21 10:22:55;;;;;;;;;25.50;21.25;;;;;6.33;55.56;101623.88;5069641;27;46697;-62
2021/12/21 10:25:20;;;;;;;;;19.25;18.00;;;;;6.49;55.32;101613.44;5063388;27;65319;-63
2021/12/21 10:27:46;;;;;;;;;18.25;16.50;;;;;6.65;54.88;101616.06;5040548;27;65762;-63
2021/12/21 10:30:11;;;;;;;;;25.75;18.00;;;;;6.71;54.47;101620.97;5055153;27;45496;-62
2021/12/21 10:32:36;;;;;;;;;22.50;17.50;;;;;6.77;54.44;101612.78;5044366;27;47312;-62
2021/12/21 10:35:04;;;;;;;;;19.50;15.50;;;;;6.87;54.23;101614.91;5071049;27;72332;-62
2021/12/21 10:37:32;;;;;;;;;16.50;14.50;;;;;6.96;53.80;101617.81;5073490;27;45521;-62
2021/12/21 10:40:17;;;;;;;;;22.75;15.25;;;;;7.04;53.56;101619.16;5046069;27;45494;-62
2021/12/21 10:42:53;;;;;;;;;20.25;14.75;;;;;7.12;53.22;101606.53;5068003;27;46656;-62
2021/12/21 10:45:24;;;;;;;;;28.50;19.75;;;;;7.15;52.97;101606.34;5043656;27;45876;-62
2021/12/21 10:47:50;;;;;;;;;23.50;20.50;;;;;7.17;52.84;101604.50;5065441;27;45245;-62
2021/12/21 10:50:15;;;;;;;;;22.50;20.25;;;;;7.20;52.51;101608.69;5054366;27;63580;-63
2021/12/21 10:52:42;;;;;;;;;22.00;19.75;;;;;7.20;52.59;101612.16;5064016;27;75195;-62
2021/12/21 10:55:08;;;;;;;;;30.00;24.00;;;;;7.19;52.59;101613.09;5046809;27;45483;-63
2021/12/21 10:57:34;;;;;;;;;22.75;20.00;;;;;7.14;52.33;101599.44;5051024;27;45624;-62
2021/12/21 11:00:05;;;;;;;;;21.25;15.25;;;;;7.07;52.39;101613.78;5038472;27;45389;-62
2021/12/21 11:02:33;;;;;;;;;20.00;16.50;;;;;7.01;52.34;101614.97;5069741;27;46642;-62
2021/12/21 11:05:11;;;;;;;;;26.50;21.00;;;;;6.92;52.52;101605.88;5045026;27;45716;-62
2021/12/21 11:07:43;;;;;;;;;24.75;22.00;;;;;6.84;52.49;101608.09;5052386;27;46161;-63
2021/12/21 11:10:19;;;;;;;;;29.50;23.25;;;;;6.78;52.69;101609.25;5065501;27;45500;-62
2021/12/21 11:12:49;;;;;;;;;25.75;18.75;;;;;6.76;52.74;101605.88;5051251;27;46062;-62
2021/12/21 11:15:19;;;;;;;;;48.00;37.75;;;;;6.76;52.70;101602.44;5061430;27;45819;-62
2021/12/21 11:17:45;;;;;;;;;24.25;18.50;;;;;6.74;52.56;101610.34;5050031;27;45465;-62
2021/12/21 11:20:11;;;;;;;;;22.50;19.25;;;;;6.72;52.47;101606.97;5067397;27;45566;-62
2021/12/21 11:22:38;;;;;;;;;21.75;17.00;;;;;6.73;52.59;101600.00;5050700;27;47670;-62
2021/12/21 11:25:04;;;;;;;;;20.75;18.25;;;;;6.74;52.53;101596.47;5070568;27;45469;-63
2021/12/21 11:27:30;;;;;;;;;24.00;20.25;;;;;6.73;52.38;101590.38;5052382;27;45630;-61
2021/12/21 11:30:01;;;;;;;;;30.00;19.50;;;;;6.77;52.32;101591.06;5039779;27;45651;-61
2021/12/21 11:32:29;;;;;;;;;24.25;16.50;;;;;6.72;52.41;101599.13;5082501;27;45445;-62
2021/12/21 11:37:20;;;;;;;;;21.75;17.75;;;;;6.62;52.29;101583.13;5081400;27;45403;-62
2021/12/21 11:37:47;;;;;;;;;29.00;24.25;;;;;6.56;52.73;101588.69;5055029;27;45531;-62
2021/12/21 11:40:15;;;;;;;;;23.50;21.00;;;;;6.51;52.84;101578.50;5056902;27;45348;-62
2021/12/21 11:42:47;;;;;;;;;20.50;17.00;;;;;6.49;52.95;101571.69;5069711;27;46917;-62
2021/12/21 11:45:14;;;;;;;;;27.75;23.00;;;;;6.50;53.03;101574.22;5040801;27;46024;-60
2021/12/21 11:47:48;;;;;;;;;27.50;23.50;;;;;6.50;53.14;101574.22;5040140;27;45432;-61
2021/12/21 11:50:13;;;;;;;;;34.25;26.25;;;;;6.49;53.06;101577.75;5055046;27;45375;-62
2021/12/21 11:53:02;;;;;;;;;27.75;21.25;;;;;6.48;52.92;101570.84;5054607;27;46269;-61
2021/12/21 11:55:28;;;;;;;;;26.75;20.75;;;;;6.46;52.82;101571.84;5056216;27;45435;-62
2021/12/21 11:57:55;;;;;;;;;25.75;21.00;;;;;6.43;53.10;101569.41;5049070;28;45451;-62
2021/12/21 12:00:34;;;;;;;;;22.50;20.00;;;;;6.39;53.02;101556.50;5065866;27;45495;-62
2021/12/21 12:03:11;;;;;;;;;26.50;21.75;;;;;6.34;53.34;101557.69;5063494;27;46547;-63
2021/12/21 12:05:36;;;;;;;;;27.25;20.00;;;;;6.33;53.44;101553.41;5048854;28;45248;-61
2021/12/21 12:08:03;;;;;;;;;28.75;24.00;;;;;6.32;53.34;101551.72;5064471;27;45757;-62
2021/12/21 12:10:28;;;;;;;;;26.75;20.25;;;;;6.34;53.38;101552.47;5072531;27;45470;-62
2021/12/21 12:12:53;;;;;;;;;24.75;17.25;;;;;6.35;53.16;101549.78;5067992;28;45520;-62
2021/12/21 12:15:19;;;;;;;;;31.75;22.25;;;;;6.38;53.43;101546.16;5064770;27;46087;-63
2021/12/21 12:17:49;;;;;;;;;30.75;26.50;;;;;6.41;53.28;101550.34;5061116;27;45382;-62
2021/12/21 12:20:15;;;;;;;;;25.75;20.25;;;;;6.44;52.96;101544.97;5058568;27;45641;-62
2021/12/21 12:22:43;;;;;;;;;24.25;19.50;;;;;6.41;52.89;101542.53;5078293;27;46108;-61
2021/12/21 12:25:23;;;;;;;;;26.75;18.50;;;;;6.36;52.98;101541.00;5061542;27;45694;-63
2021/12/21 12:27:50;;;;;;;;;24.00;19.50;;;;;6.29;53.06;101537.06;5070415;27;45516;-62
2021/12/21 12:30:21;;;;;;;;;24.75;19.50;;;;;6.23;53.41;101540.84;5047579;27;45460;-62
2021/12/21 12:32:49;;;;;;;;;29.25;21.50;;;;;6.17;53.53;101532.50;5056326;27;45664;-61